createdAt,value
2019-03-23T00:00:23.754Z,1.10
2019-03-23T00:02:54.274Z,2.80
2019-03-23T00:05:24.726Z,1.60
2019-03-23T00:07:55.080Z,3.70
2019-03-23T00:10:26.219Z,1.77
2019-03-23T00:12:57.264Z,2.00
2019-03-23T00:15:27.886Z,3.43
2019-03-23T00:17:58.228Z,1.23
2019-03-23T00:20:28.607Z,1.10
2019-03-23T00:22:59.356Z,4.07
2019-03-23T00:25:29.731Z,2.40
2019-03-23T00:28:00.163Z,1.67
2019-03-23T00:30:30.508Z,2.73
2019-03-23T00:33:01.273Z,1.07
2019-03-23T00:35:32.005Z,2.30
2019-03-23T00:38:03.681Z,4.53
2019-03-23T00:40:34.415Z,2.00
2019-03-23T00:43:05.134Z,3.67
2019-03-23T00:45:35.546Z,2.60
2019-03-23T00:48:06.682Z,4.40
2019-03-23T00:50:37.154Z,2.23
2019-03-23T00:53:09.958Z,2.87
2019-03-23T00:55:40.345Z,1.77
2019-03-23T00:58:10.719Z,1.30
2019-03-23T01:00:41.056Z,2.57
2019-03-23T01:03:11.926Z,1.33
2019-03-23T01:05:42.691Z,0.90
2019-03-23T01:08:13.112Z,1.17
2019-03-23T01:10:44.050Z,1.60
2019-03-23T01:13:14.505Z,2.70
2019-03-23T01:15:45.512Z,4.20
2019-03-23T01:18:16.418Z,1.03
2019-03-23T01:20:49.893Z,1.90
2019-03-23T01:23:20.105Z,1.70
2019-03-23T01:25:50.795Z,4.83
2019-03-23T01:28:22.212Z,1.40
2019-03-23T01:30:52.626Z,2.80
2019-03-23T01:33:23.120Z,2.60
2019-03-23T01:35:53.566Z,2.60
2019-03-23T01:38:24.282Z,1.73
2019-03-23T01:40:55.095Z,0.97
2019-03-23T01:43:25.841Z,2.93
2019-03-23T01:45:57.039Z,1.70
2019-03-23T01:48:27.750Z,2.60
2019-03-23T01:50:58.573Z,1.97
2019-03-23T01:53:29.000Z,2.03
2019-03-23T01:55:59.395Z,2.10
2019-03-23T01:58:29.799Z,3.13
2019-03-23T02:01:01.130Z,1.40
2019-03-23T02:03:36.059Z,1.43
2019-03-23T02:06:07.073Z,1.50
2019-03-23T02:08:37.548Z,2.20
2019-03-23T02:11:07.960Z,4.87
2019-03-23T02:13:38.315Z,1.10
2019-03-23T02:16:08.719Z,0.77
2019-03-23T02:18:39.060Z,1.37
2019-03-23T02:21:09.442Z,0.90
2019-03-23T02:23:40.777Z,2.40
2019-03-23T02:26:11.175Z,1.67
2019-03-23T02:28:41.599Z,1.50
2019-03-23T02:31:14.252Z,1.83
2019-03-23T02:33:45.139Z,8.23
2019-03-23T02:36:15.780Z,3.03
2019-03-23T02:38:47.066Z,2.30
2019-03-23T02:41:17.489Z,0.87
2019-03-23T02:43:48.329Z,1.93
2019-03-23T02:46:19.121Z,3.33
2019-03-23T02:48:49.557Z,3.70
2019-03-23T02:51:20.248Z,2.20
2019-03-23T02:53:50.644Z,1.87
2019-03-23T02:56:20.990Z,1.73
2019-03-23T02:58:52.457Z,2.60
2019-03-23T03:01:23.119Z,15.33
2019-03-23T03:03:54.336Z,1.63
2019-03-23T03:06:24.861Z,1.57
2019-03-23T03:08:57.001Z,2.50
2019-03-23T03:11:27.722Z,1.80
2019-03-23T03:13:58.116Z,3.37
2019-03-23T03:16:29.529Z,0.50
2019-03-23T03:19:00.263Z,1.53
2019-03-23T03:21:31.126Z,1.07
2019-03-23T03:24:01.503Z,6.90
2019-03-23T03:26:32.150Z,1.67
2019-03-23T03:29:03.061Z,0.80
2019-03-23T03:31:33.426Z,2.17
2019-03-23T03:34:04.146Z,7.73
2019-03-23T03:36:34.558Z,1.10
2019-03-23T03:39:06.328Z,2.00
2019-03-23T03:41:36.687Z,1.10
2019-03-23T03:44:07.080Z,1.00
2019-03-23T03:46:38.210Z,2.10
2019-03-23T03:49:12.733Z,1.27
2019-03-23T03:51:41.534Z,2.73
2019-03-23T03:54:12.566Z,1.33
2019-03-23T03:56:42.953Z,0.90
2019-03-23T03:59:13.334Z,2.80
2019-03-23T04:01:43.754Z,7.33
2019-03-23T04:04:14.616Z,2.40
2019-03-23T04:06:44.948Z,0.90
2019-03-23T04:09:15.399Z,2.23
2019-03-23T04:11:46.207Z,3.00
2019-03-23T04:14:16.908Z,2.60
2019-03-23T04:16:47.373Z,3.53
2019-03-23T04:19:18.328Z,1.47
2019-03-23T04:21:48.688Z,3.03
2019-03-23T04:24:20.121Z,1.47
2019-03-23T04:26:50.806Z,6.63
2019-03-23T04:29:21.187Z,0.50
2019-03-23T04:31:52.104Z,3.43
2019-03-23T04:34:22.782Z,0.80
2019-03-23T04:36:54.171Z,0.60
2019-03-23T04:39:24.555Z,3.37
2019-03-23T04:41:55.016Z,2.50
2019-03-23T04:44:25.493Z,2.97
2019-03-23T04:46:55.847Z,2.10
2019-03-23T04:49:26.596Z,1.30
2019-03-23T04:51:57.027Z,2.50
2019-03-23T04:54:27.803Z,2.70
2019-03-23T04:56:58.228Z,4.13
2019-03-23T04:59:28.611Z,0.50
2019-03-23T05:01:59.021Z,1.00
2019-03-23T05:04:29.426Z,5.03
2019-03-23T05:06:59.883Z,0.97
2019-03-23T05:09:30.263Z,6.93
2019-03-23T05:12:01.467Z,0.93
2019-03-23T05:14:32.486Z,1.73
2019-03-23T05:17:03.404Z,0.90
2019-03-23T05:19:34.988Z,2.73
2019-03-23T05:22:05.522Z,1.83
2019-03-23T05:24:36.105Z,0.90
2019-03-23T05:27:07.484Z,1.17
2019-03-23T05:29:38.276Z,1.60
2019-03-23T05:32:08.859Z,1.40
2019-03-23T05:34:39.348Z,3.07
2019-03-23T05:37:09.839Z,4.97
2019-03-23T05:39:40.583Z,2.03
2019-03-23T05:42:10.963Z,0.50
2019-03-23T05:44:41.648Z,1.00
2019-03-23T05:47:12.004Z,1.17
2019-03-23T05:49:42.779Z,1.73
2019-03-23T05:52:13.256Z,1.37
2019-03-23T05:54:43.843Z,1.27
2019-03-23T05:57:15.076Z,6.73
2019-03-23T05:59:45.887Z,0.60
2019-03-23T06:02:16.493Z,0.87
2019-03-23T06:04:46.919Z,1.23
2019-03-23T06:07:17.686Z,0.57
2019-03-23T06:09:48.649Z,3.13
2019-03-23T06:12:19.070Z,1.50
2019-03-23T06:14:50.591Z,0.83
2019-03-23T06:17:20.989Z,1.13
2019-03-23T06:19:51.379Z,1.53
2019-03-23T06:22:22.275Z,1.67
2019-03-23T06:24:52.746Z,2.30
2019-03-23T06:27:23.150Z,1.03
2019-03-23T06:29:54.039Z,2.73
2019-03-23T06:32:25.016Z,6.27
2019-03-23T06:34:55.463Z,2.40
2019-03-23T06:37:26.033Z,3.93
2019-03-23T06:39:57.311Z,5.17
2019-03-23T06:42:28.109Z,4.27
2019-03-23T06:44:59.167Z,2.20
2019-03-23T06:47:30.624Z,4.07
2019-03-23T06:50:01.083Z,4.50
2019-03-23T06:52:31.565Z,2.00
2019-03-23T06:55:02.074Z,2.97
2019-03-23T06:57:33.043Z,1.40
2019-03-23T07:00:04.159Z,2.97
2019-03-23T07:02:34.567Z,3.30
2019-03-23T07:05:06.376Z,3.50
2019-03-23T07:07:36.891Z,3.27
2019-03-23T07:10:09.296Z,3.10
2019-03-23T07:12:40.300Z,3.03
2019-03-23T07:15:19.776Z,2.03
2019-03-23T07:17:43.742Z,1.57
2019-03-23T07:20:16.100Z,3.80
2019-03-23T07:22:46.524Z,1.67
2019-03-23T07:25:17.470Z,3.03
2019-03-23T07:27:47.951Z,5.37
2019-03-23T07:30:19.111Z,2.50
2019-03-23T07:32:49.860Z,3.50
2019-03-23T07:35:21.098Z,3.47
2019-03-23T07:37:52.451Z,3.60
2019-03-23T07:40:23.270Z,2.03
2019-03-23T07:42:53.827Z,3.70
2019-03-23T07:45:24.404Z,6.13
2019-03-23T07:47:54.889Z,4.87
2019-03-23T07:50:25.370Z,4.20
2019-03-23T07:52:55.815Z,2.23
2019-03-23T07:55:27.166Z,3.57
2019-03-23T07:57:57.551Z,7.50
2019-03-23T08:00:28.020Z,2.57
2019-03-23T08:02:58.975Z,3.90
2019-03-23T08:05:29.896Z,5.17
2019-03-23T08:08:00.449Z,3.03
2019-03-23T08:10:33.341Z,3.03
2019-03-23T08:13:06.864Z,2.60
2019-03-23T08:15:37.324Z,3.40
2019-03-23T08:18:08.251Z,8.40
2019-03-23T08:20:38.656Z,4.40
2019-03-23T08:23:09.139Z,6.50
2019-03-23T08:25:40.068Z,5.87
2019-03-23T08:28:10.656Z,4.40
2019-03-23T08:30:41.526Z,5.83
2019-03-23T08:33:32.336Z,4.73
2019-03-23T08:36:03.214Z,5.07
2019-03-23T08:38:34.135Z,6.57
2019-03-23T08:41:04.965Z,5.07
2019-03-23T08:43:35.390Z,7.53
2019-03-23T08:46:06.770Z,7.83
2019-03-23T08:48:38.599Z,7.60
2019-03-23T08:51:09.695Z,7.30
2019-03-23T08:53:40.670Z,6.00
2019-03-23T08:56:11.501Z,10.73
2019-03-23T08:58:41.529Z,6.10
2019-03-23T09:01:12.133Z,7.30
2019-03-23T09:03:52.080Z,9.03
2019-03-23T09:06:18.016Z,5.17
2019-03-23T09:08:49.140Z,6.63
2019-03-23T09:11:20.673Z,8.77
2019-03-23T09:13:51.340Z,8.17
2019-03-23T09:16:22.148Z,5.20
2019-03-23T09:18:53.118Z,6.30
2019-03-23T09:21:23.707Z,13.40
2019-03-23T09:23:54.072Z,12.03
2019-03-23T09:26:24.786Z,7.57
2019-03-23T09:28:57.005Z,10.30
2019-03-23T09:31:27.505Z,7.23
2019-03-23T09:33:58.283Z,7.53
2019-03-23T09:36:28.695Z,10.40
2019-03-23T09:38:59.117Z,8.87
2019-03-23T09:41:29.534Z,9.10
2019-03-23T09:44:00.551Z,11.30
2019-03-23T09:46:32.996Z,4.70
2019-03-23T09:49:03.438Z,8.20
2019-03-23T09:51:34.150Z,6.07
2019-03-23T09:54:04.735Z,10.00
2019-03-23T09:56:35.762Z,8.60
2019-03-23T09:59:07.146Z,6.50
2019-03-23T10:01:38.119Z,11.43
2019-03-23T10:04:09.536Z,8.00
2019-03-23T10:06:40.027Z,9.77
2019-03-23T10:09:12.911Z,11.87
2019-03-23T10:11:43.646Z,15.90
2019-03-23T10:14:14.558Z,9.83
2019-03-23T10:16:45.106Z,6.40
2019-03-23T10:19:16.086Z,15.50
2019-03-23T10:21:47.302Z,7.63
2019-03-23T10:24:17.682Z,11.80
2019-03-23T10:26:48.375Z,7.03
2019-03-23T10:29:19.046Z,4.90
2019-03-23T10:31:51.549Z,11.63
2019-03-23T10:34:21.950Z,13.20
2019-03-23T10:36:53.135Z,7.13
2019-03-23T10:39:24.279Z,12.30
2019-03-23T10:41:54.862Z,10.53
2019-03-23T10:44:25.268Z,8.70
2019-03-23T10:46:56.094Z,9.50
2019-03-23T10:49:26.723Z,6.87
2019-03-23T10:51:57.102Z,12.87
2019-03-23T10:54:27.478Z,11.97
2019-03-23T10:56:58.273Z,6.50
2019-03-23T10:59:29.761Z,5.63
2019-03-23T11:02:00.075Z,15.07
2019-03-23T11:04:30.762Z,11.60
2019-03-23T11:07:01.119Z,11.47
2019-03-23T11:09:31.554Z,13.47
2019-03-23T11:12:03.258Z,7.80
2019-03-23T11:14:34.147Z,9.57
2019-03-23T11:17:04.863Z,11.30
2019-03-23T11:19:38.711Z,10.87
2019-03-23T11:22:09.815Z,9.70
2019-03-23T11:24:41.041Z,6.13
2019-03-23T11:27:12.187Z,10.80
2019-03-23T11:29:43.801Z,9.90
2019-03-23T11:32:14.691Z,9.40
2019-03-23T11:34:45.553Z,7.73
2019-03-23T11:37:16.374Z,9.10
2019-03-23T11:39:46.784Z,11.67
2019-03-23T11:42:17.410Z,7.47
2019-03-23T11:44:47.791Z,16.77
2019-03-23T11:47:18.092Z,10.17
2019-03-23T11:49:48.866Z,9.50
2019-03-23T11:52:19.966Z,13.23
2019-03-23T11:54:50.778Z,14.63
2019-03-23T11:57:22.003Z,11.93
2019-03-23T11:59:52.360Z,14.53
2019-03-23T12:02:23.527Z,9.60
2019-03-23T12:04:55.275Z,12.93
2019-03-23T12:07:25.683Z,13.17
2019-03-23T12:09:56.474Z,7.90
2019-03-23T12:12:28.133Z,13.30
2019-03-23T12:14:59.244Z,10.10
2019-03-23T12:17:30.351Z,10.43
2019-03-23T12:20:01.045Z,8.17
2019-03-23T12:22:31.400Z,7.07
2019-03-23T12:25:01.895Z,7.83
2019-03-23T12:27:32.608Z,7.97
2019-03-23T12:30:07.563Z,10.73
2019-03-23T12:32:35.390Z,12.03
2019-03-23T12:35:06.931Z,11.13
2019-03-23T12:37:37.328Z,11.13
2019-03-23T12:40:09.190Z,12.53
2019-03-23T12:42:39.572Z,9.07
2019-03-23T12:45:10.610Z,10.73
2019-03-23T12:47:41.438Z,14.70
2019-03-23T12:50:14.035Z,6.43
2019-03-23T12:52:44.394Z,10.20
2019-03-23T12:55:15.091Z,9.80
2019-03-23T12:57:45.743Z,12.50
2019-03-23T13:00:16.723Z,11.77
2019-03-23T13:02:47.444Z,14.47
2019-03-23T13:05:18.404Z,13.57
2019-03-23T13:07:48.738Z,11.77
2019-03-23T13:10:19.467Z,10.20
2019-03-23T13:12:50.899Z,7.83
2019-03-23T13:15:21.898Z,10.50
2019-03-23T13:17:52.851Z,8.63
2019-03-23T13:20:23.801Z,9.73
2019-03-23T13:22:54.307Z,6.70
2019-03-23T13:25:27.251Z,11.07
2019-03-23T13:27:58.209Z,9.40
2019-03-23T13:30:28.602Z,17.13
2019-03-23T13:32:58.980Z,11.27
2019-03-23T13:35:29.390Z,5.70
2019-03-23T13:37:59.808Z,10.60
2019-03-23T13:40:34.914Z,8.17
2019-03-23T13:43:08.414Z,9.17
2019-03-23T13:45:42.723Z,13.33
2019-03-23T13:48:11.593Z,8.63
2019-03-23T13:50:42.548Z,7.93
2019-03-23T13:53:13.033Z,9.13
2019-03-23T13:55:43.327Z,10.07
2019-03-23T13:58:14.822Z,8.90
2019-03-23T14:00:45.775Z,11.60
2019-03-23T14:03:16.083Z,11.90
2019-03-23T14:05:49.626Z,13.93
2019-03-23T14:08:21.043Z,10.40
2019-03-23T14:10:51.475Z,9.70
2019-03-23T14:13:21.946Z,8.30
2019-03-23T14:15:52.599Z,11.47
2019-03-23T14:18:23.940Z,7.70
2019-03-23T14:20:54.555Z,11.27
2019-03-23T14:23:25.010Z,10.30
2019-03-23T14:25:56.302Z,7.87
2019-03-23T14:28:27.987Z,15.40
2019-03-23T14:30:59.586Z,12.07
2019-03-23T14:33:30.050Z,10.23
2019-03-23T14:36:01.036Z,11.80
2019-03-23T14:38:31.461Z,14.27
2019-03-23T14:41:02.400Z,12.00
2019-03-23T14:43:33.459Z,14.40
2019-03-23T14:46:03.922Z,11.13
2019-03-23T14:48:35.117Z,12.33
2019-03-23T14:51:05.886Z,11.50
2019-03-23T14:53:36.254Z,10.80
2019-03-23T14:56:06.847Z,10.73
2019-03-23T14:58:37.521Z,13.30
2019-03-23T15:01:08.762Z,13.97
2019-03-23T15:03:39.450Z,13.40
2019-03-23T15:06:10.300Z,15.00
2019-03-23T15:08:41.395Z,15.77
2019-03-23T15:11:14.792Z,13.20
2019-03-23T15:13:47.519Z,12.77
2019-03-23T15:16:17.909Z,10.10
2019-03-23T15:18:49.520Z,9.10
2019-03-23T15:21:20.171Z,7.47
2019-03-23T15:23:51.681Z,11.70
2019-03-23T15:26:23.079Z,15.27
2019-03-23T15:28:53.991Z,14.63
2019-03-23T15:31:24.911Z,11.67
2019-03-23T15:33:55.297Z,15.30
2019-03-23T15:36:26.168Z,7.57
2019-03-23T15:38:57.513Z,8.83
2019-03-23T15:41:28.590Z,13.33
2019-03-23T15:44:00.164Z,16.30
2019-03-23T15:46:31.601Z,10.80
2019-03-23T15:49:05.699Z,8.50
2019-03-23T15:51:36.647Z,13.80
2019-03-23T15:54:08.712Z,12.60
2019-03-23T15:56:39.272Z,15.07
2019-03-23T15:59:10.184Z,14.60
2019-03-23T16:01:43.669Z,12.60
2019-03-23T16:04:14.429Z,11.33
2019-03-23T16:06:44.999Z,11.67
2019-03-23T16:09:15.935Z,8.27
2019-03-23T16:11:46.948Z,15.53
2019-03-23T16:14:17.863Z,8.03
2019-03-23T16:16:48.929Z,9.13
2019-03-23T16:19:20.396Z,11.50
2019-03-23T16:21:51.243Z,11.60
2019-03-23T16:24:23.145Z,18.47
2019-03-23T16:26:54.195Z,12.80
2019-03-23T16:29:24.888Z,12.70
2019-03-23T16:31:56.050Z,16.47
2019-03-23T16:34:26.967Z,11.90
2019-03-23T16:36:58.132Z,11.80
2019-03-23T16:39:29.091Z,9.10
2019-03-23T16:42:00.222Z,11.83
2019-03-23T16:44:30.799Z,7.60
2019-03-23T16:47:03.013Z,15.10
2019-03-23T16:49:34.086Z,9.87
2019-03-23T16:52:05.008Z,12.07
2019-03-23T16:54:35.486Z,12.47
2019-03-23T16:57:06.948Z,10.17
2019-03-23T16:59:37.481Z,10.80
2019-03-23T17:02:08.336Z,8.53
2019-03-23T17:04:39.121Z,13.80
2019-03-23T17:07:09.906Z,11.20
2019-03-23T17:09:41.675Z,14.10
2019-03-23T17:12:12.505Z,15.67
2019-03-23T17:14:42.823Z,9.60
2019-03-23T17:17:13.536Z,11.47
2019-03-23T17:19:44.549Z,14.97
2019-03-23T17:22:15.588Z,11.97
2019-03-23T17:24:46.975Z,13.77
2019-03-23T17:27:17.399Z,14.13
2019-03-23T17:29:48.209Z,13.43
2019-03-23T17:32:22.803Z,16.27
2019-03-23T17:34:54.347Z,11.57
2019-03-23T17:37:25.156Z,7.37
2019-03-23T17:39:55.654Z,16.67
2019-03-23T17:42:26.124Z,9.17
2019-03-23T17:44:56.606Z,16.97
2019-03-23T17:47:27.331Z,11.07
2019-03-23T17:49:57.654Z,9.27
2019-03-23T17:52:28.009Z,13.60
2019-03-23T17:54:58.870Z,12.37
2019-03-23T17:57:29.718Z,11.50
2019-03-23T18:00:00.414Z,10.57
2019-03-23T18:02:31.225Z,8.97
2019-03-23T18:05:01.995Z,9.50
2019-03-23T18:07:37.215Z,13.33
2019-03-23T18:10:09.414Z,9.33
2019-03-23T18:12:40.280Z,11.23
2019-03-23T18:15:11.543Z,13.40
2019-03-23T18:17:42.584Z,8.17
2019-03-23T18:20:14.644Z,13.70
2019-03-23T18:22:45.294Z,8.70
2019-03-23T18:25:16.605Z,12.17
2019-03-23T18:27:47.405Z,7.60
2019-03-23T18:30:34.283Z,11.20
2019-03-23T18:33:06.704Z,15.90
2019-03-23T18:35:37.684Z,15.23
2019-03-23T18:38:09.070Z,11.00
2019-03-23T18:40:42.275Z,6.17
2019-03-23T18:43:13.919Z,15.50
2019-03-23T18:45:45.266Z,9.27
2019-03-23T18:48:16.895Z,16.23
2019-03-23T18:50:48.350Z,15.03
2019-03-23T18:53:19.358Z,6.33
2019-03-23T18:55:51.057Z,12.37
2019-03-23T18:58:21.866Z,13.03
2019-03-23T19:00:53.588Z,11.73
2019-03-23T19:03:25.148Z,11.30
2019-03-23T19:05:56.583Z,12.83
2019-03-23T19:08:28.217Z,9.53
2019-03-23T19:11:00.278Z,11.03
2019-03-23T19:13:37.799Z,10.20
2019-03-23T19:16:06.385Z,7.07
2019-03-23T19:18:39.738Z,11.67
2019-03-23T19:21:10.721Z,5.80
2019-03-23T19:23:42.586Z,6.13
2019-03-23T19:26:14.187Z,16.00
2019-03-23T19:28:46.271Z,14.00
2019-03-23T19:31:18.107Z,9.70
2019-03-23T19:33:50.615Z,5.50
2019-03-23T19:36:22.846Z,7.63
2019-03-23T19:38:57.526Z,16.40
2019-03-23T19:41:31.618Z,7.10
2019-03-23T19:44:03.757Z,11.00
2019-03-23T19:46:35.221Z,8.83
2019-03-23T19:49:07.373Z,6.17
2019-03-23T19:51:40.231Z,16.90
2019-03-23T19:54:11.951Z,7.33
2019-03-23T19:56:44.692Z,10.80
2019-03-23T19:59:20.809Z,14.80
2019-03-23T20:01:54.451Z,11.10
2019-03-23T20:04:27.063Z,7.70
2019-03-23T20:06:58.990Z,8.33
2019-03-23T20:09:31.695Z,13.07
2019-03-23T20:12:02.715Z,7.50
2019-03-23T20:14:34.518Z,10.40
2019-03-23T20:17:06.616Z,13.27
2019-03-23T20:19:38.190Z,9.30
2019-03-23T20:22:10.983Z,3.47
2019-03-23T20:24:41.899Z,7.50
2019-03-23T20:27:12.977Z,6.67
2019-03-23T20:29:45.447Z,6.33
2019-03-23T20:32:17.313Z,8.43
2019-03-23T20:34:52.167Z,6.07
2019-03-23T20:37:25.228Z,9.50
2019-03-23T20:39:57.555Z,5.17
2019-03-23T20:42:30.087Z,7.00
2019-03-23T20:45:03.703Z,6.03
2019-03-23T20:47:36.680Z,8.27
2019-03-23T20:50:09.859Z,11.03
2019-03-23T20:52:43.034Z,11.20
2019-03-23T20:55:30.040Z,9.00
2019-03-23T20:58:00.672Z,5.73
2019-03-23T21:00:33.381Z,8.07
2019-03-23T21:03:05.601Z,4.67
2019-03-23T21:05:38.650Z,10.10
2019-03-23T21:08:10.211Z,13.80
2019-03-23T21:10:41.724Z,6.20
2019-03-23T21:13:12.657Z,5.77
2019-03-23T21:15:44.838Z,9.03
2019-03-23T21:18:16.723Z,7.57
2019-03-23T21:20:49.754Z,6.83
2019-03-23T21:23:21.669Z,6.63
2019-03-23T21:25:55.495Z,10.83
2019-03-23T21:28:31.512Z,4.53
2019-03-23T21:31:03.669Z,6.63
2019-03-23T21:33:38.929Z,10.20
2019-03-23T21:36:10.271Z,5.77
2019-03-23T21:38:42.114Z,11.00
2019-03-23T21:41:14.140Z,11.27
2019-03-23T21:43:46.333Z,9.30
2019-03-23T21:46:22.020Z,7.20
2019-03-23T21:48:53.176Z,4.10
2019-03-23T21:51:24.687Z,4.53
2019-03-23T21:53:56.080Z,10.30
2019-03-23T21:56:26.993Z,9.80
2019-03-23T21:59:00.606Z,4.37
2019-03-23T22:01:31.423Z,8.77
2019-03-23T22:04:02.760Z,5.73
2019-03-23T22:06:33.981Z,13.03
2019-03-23T22:09:06.918Z,5.10
2019-03-23T22:11:38.302Z,7.73
2019-03-23T22:14:10.518Z,7.10
2019-03-23T22:16:43.686Z,5.40
2019-03-23T22:19:15.284Z,7.30
2019-03-23T22:21:47.624Z,8.20
2019-03-23T22:24:18.963Z,3.53
2019-03-23T22:26:52.145Z,9.30
2019-03-23T22:29:23.164Z,6.27
2019-03-23T22:31:55.789Z,4.03
2019-03-23T22:34:26.954Z,9.60
2019-03-23T22:36:59.764Z,12.00
2019-03-23T22:39:31.668Z,4.87
2019-03-23T22:42:03.587Z,10.93
2019-03-23T22:44:34.368Z,4.03
2019-03-23T22:47:05.375Z,5.40
2019-03-23T22:49:37.181Z,9.43
2019-03-23T22:52:08.121Z,5.80
2019-03-23T22:54:39.111Z,4.40
2019-03-23T22:57:12.534Z,8.20
2019-03-23T22:59:43.454Z,3.80
2019-03-23T23:02:15.341Z,4.27
2019-03-23T23:04:46.063Z,9.13
2019-03-23T23:07:17.095Z,5.43
2019-03-23T23:09:47.642Z,4.20
2019-03-23T23:12:18.153Z,6.03
2019-03-23T23:14:48.708Z,6.67
2019-03-23T23:17:19.635Z,5.27
2019-03-23T23:19:51.533Z,4.10
2019-03-23T23:22:22.503Z,8.63
2019-03-23T23:24:53.327Z,3.03
2019-03-23T23:27:24.252Z,5.33
2019-03-23T23:29:54.741Z,9.00
2019-03-23T23:32:25.536Z,5.77
2019-03-23T23:34:57.216Z,3.07
2019-03-23T23:37:27.837Z,5.87
2019-03-23T23:39:59.017Z,12.70
2019-03-23T23:42:30.064Z,7.23
2019-03-23T23:45:00.446Z,4.60
2019-03-23T23:47:30.802Z,7.43
2019-03-23T23:50:01.154Z,7.53
2019-03-23T23:52:31.546Z,10.63
2019-03-23T23:55:02.265Z,3.07
2019-03-23T23:57:33.127Z,11.53
